Time;durP1;ratioP1;P1;durP2;ratioP2;P2;SDS_P1;SDS_P2;PMS_P1;PMS_P2;Temp;Humidity;BMP_temperature;BMP_pressure;BME280_temperature;BME280_humidity;BME280_pressure;Samples;Min_cycle;Max_cycle;Signal;HPM_P1;HPM_P2
2022/06/15 00:05:30;;;;;;;6.53;3.25;;;17.00;99.90;;;;;;6720100;88;20211;-78
2022/06/15 00:15:30;;;;;;;7.45;3.17;;;16.70;99.90;;;;;;6722506;88;20208;-78
2022/06/15 00:25:31;;;;;;;5.30;3.22;;;16.60;99.90;;;;;;6718322;88;20199;-78
2022/06/15 00:35:31;;;;;;;6.00;3.20;;;16.80;99.90;;;;;;6722168;88;20633;-78
2022/06/15 00:45:33;;;;;;;5.87;3.40;;;16.30;99.90;;;;;;6717968;88;20230;-78
2022/06/15 00:55:34;;;;;;;10.45;3.87;;;16.10;99.90;;;;;;6719148;88;20178;-78
2022/06/15 01:05:46;;;;;;;9.15;3.60;;;16.10;99.90;;;;;;6720676;88;20620;-78
2022/06/15 01:16:25;;;;;;;7.10;3.97;;;15.80;99.90;;;;;;6718725;88;20202;-78
2022/06/15 01:27:06;;;;;;;7.65;3.83;;;15.60;99.90;;;;;;6720579;88;20603;-78
2022/06/15 01:37:42;;;;;;;8.35;3.83;;;15.20;99.90;;;;;;6717410;88;20177;-77
2022/06/15 01:47:45;;;;;;;7.12;3.80;;;14.90;99.90;;;;;;6717495;88;20231;-78
2022/06/15 01:57:50;;;;;;;6.85;4.00;;;14.70;99.90;;;;;;6720844;88;20232;-77
2022/06/15 02:07:59;;;;;;;6.13;4.10;;;14.60;99.90;;;;;;6721068;88;20181;-78
2022/06/15 02:18:04;;;;;;;6.97;3.92;;;14.40;99.90;;;;;;6716515;88;20248;-77
2022/06/15 02:28:05;;;;;;;6.63;3.93;;;14.10;99.90;;;;;;6718815;88;20171;-78
2022/06/15 02:38:06;;;;;;;9.07;4.40;;;14.30;99.90;;;;;;6717300;88;20380;-77
2022/06/15 02:48:08;;;;;;;7.80;4.10;;;14.20;99.90;;;;;;6722957;88;20247;-78
2022/06/15 02:58:15;;;;;;;6.62;4.30;;;13.80;99.90;;;;;;6729994;88;20193;-78
2022/06/15 03:08:17;;;;;;;8.13;4.40;;;13.60;99.90;;;;;;6721257;88;21118;-78
2022/06/15 03:18:18;;;;;;;7.75;4.30;;;13.60;99.90;;;;;;6720817;88;20183;-78
2022/06/15 03:28:18;;;;;;;6.93;4.10;;;13.60;99.90;;;;;;6721856;88;20194;-78
2022/06/15 03:38:19;;;;;;;7.20;4.22;;;13.60;99.90;;;;;;6725251;88;20187;-78
2022/06/15 03:48:19;;;;;;;8.77;4.12;;;13.40;99.90;;;;;;6717922;88;20260;-78
2022/06/15 03:58:20;;;;;;;8.65;5.10;;;13.20;99.90;;;;;;6716736;88;20252;-78
2022/06/15 04:08:35;;;;;;;9.57;5.03;;;13.30;99.90;;;;;;6720834;88;20198;-78
2022/06/15 04:18:36;;;;;;;10.73;4.80;;;13.30;99.90;;;;;;6719170;88;20192;-78
2022/06/15 04:28:39;;;;;;;8.18;4.60;;;13.60;99.90;;;;;;6717933;88;20244;-78
2022/06/15 04:38:41;;;;;;;5.85;4.00;;;13.60;99.90;;;;;;6714124;88;20216;-79
2022/06/15 04:48:42;;;;;;;9.85;4.43;;;13.60;99.90;;;;;;6721226;88;20194;-78
2022/06/15 04:58:43;;;;;;;6.10;4.35;;;13.80;99.90;;;;;;6721070;88;20280;-78
2022/06/15 05:08:43;;;;;;;7.18;4.62;;;13.90;99.90;;;;;;6709259;88;20206;-78
2022/06/15 05:18:44;;;;;;;10.77;5.07;;;13.90;99.90;;;;;;6715933;88;20186;-78
2022/06/15 05:28:45;;;;;;;9.50;4.67;;;14.00;99.90;;;;;;6715690;88;20557;-78
2022/06/15 05:38:46;;;;;;;12.37;4.82;;;14.60;99.90;;;;;;6719522;88;20511;-78
2022/06/15 05:48:46;;;;;;;12.30;5.35;;;14.60;99.90;;;;;;6717394;88;20206;-76
2022/06/15 05:58:47;;;;;;;9.48;4.90;;;15.10;99.90;;;;;;6709338;88;20195;-76
2022/06/15 06:08:48;;;;;;;7.97;4.60;;;15.30;99.90;;;;;;6710302;88;20253;-76
2022/06/15 06:18:51;;;;;;;8.98;4.60;;;16.20;99.90;;;;;;6713008;88;20228;-77
2022/06/15 06:28:52;;;;;;;9.52;4.78;;;17.20;99.90;;;;;;6702399;88;20255;-75
2022/06/15 06:38:53;;;;;;;11.20;4.65;;;18.00;99.90;;;;;;6706346;88;20313;-77
2022/06/15 06:48:53;;;;;;;12.13;4.15;;;18.40;99.90;;;;;;6702108;88;20297;-76
2022/06/15 06:58:54;;;;;;;8.00;3.30;;;18.90;99.90;;;;;;6706392;88;20245;-77
2022/06/15 07:08:56;;;;;;;9.70;3.20;;;19.50;99.90;;;;;;6709109;88;20197;-77
2022/06/15 07:18:57;;;;;;;7.30;2.90;;;20.00;99.90;;;;;;6709745;88;20214;-77
2022/06/15 07:28:58;;;;;;;6.20;2.58;;;21.00;99.90;;;;;;6711022;88;20268;-78
2022/06/15 07:38:58;;;;;;;5.07;2.22;;;21.40;99.90;;;;;;6711770;88;20316;-77
2022/06/15 07:59:19;;;;;;;4.97;1.75;;;22.40;99.10;;;;;;6714665;88;20201;-78
2022/06/15 08:09:20;;;;;;;4.30;1.92;;;23.00;98.10;;;;;;6714982;88;20193;-79
2022/06/15 08:19:20;;;;;;;7.10;2.60;;;24.10;96.30;;;;;;6714780;88;20181;-77
2022/06/15 08:29:21;;;;;;;5.43;2.20;;;24.80;96.60;;;;;;6716131;88;20686;-77
2022/06/15 08:39:23;;;;;;;5.05;1.73;;;25.30;95.60;;;;;;6715351;88;20272;-79
2022/06/15 08:49:45;;;;;;;5.32;1.90;;;25.90;94.10;;;;;;6720933;88;20390;-78
2022/06/15 08:59:54;;;;;;;3.85;1.70;;;26.50;93.70;;;;;;6717141;88;20178;-77
2022/06/15 09:10:03;;;;;;;4.62;1.65;;;27.30;90.20;;;;;;6715669;88;20216;-77
2022/06/15 09:20:08;;;;;;;4.78;1.70;;;27.80;88.30;;;;;;6717306;88;20232;-77
2022/06/15 09:30:15;;;;;;;2.85;1.62;;;28.70;85.90;;;;;;6714659;88;20207;-77
2022/06/15 09:40:19;;;;;;;3.95;1.40;;;29.60;85.00;;;;;;6722504;88;20182;-77
2022/06/15 09:50:35;;;;;;;5.70;2.00;;;30.40;80.40;;;;;;6711379;88;20698;-79
2022/06/15 10:00:37;;;;;;;7.60;2.15;;;30.90;77.60;;;;;;6718517;88;20200;-79
2022/06/15 10:10:55;;;;;;;4.70;1.80;;;30.80;76.70;;;;;;6716879;88;20708;-78
2022/06/15 10:21:10;;;;;;;4.87;1.80;;;31.60;73.40;;;;;;6718282;88;20189;-78
2022/06/15 10:31:22;;;;;;;5.15;1.90;;;31.70;73.30;;;;;;6719559;88;20181;-77
2022/06/15 10:41:47;;;;;;;4.45;1.90;;;32.10;72.20;;;;;;6719849;88;20189;-78
2022/06/15 10:51:49;;;;;;;5.10;1.80;;;32.30;69.40;;;;;;6718932;88;20200;-78
2022/06/15 11:02:07;;;;;;;3.78;1.73;;;32.80;70.40;;;;;;6720531;88;20586;-78
2022/06/15 11:12:34;;;;;;;5.03;1.90;;;33.50;66.80;;;;;;6719500;88;20205;-78
2022/06/15 11:22:34;;;;;;;5.35;1.85;;;34.10;66.10;;;;;;6710045;88;20237;-78
2022/06/15 11:32:48;;;;;;;3.27;1.60;;;33.60;65.20;;;;;;6714674;88;20296;-78
2022/06/15 11:42:50;;;;;;;4.65;2.00;;;34.00;64.10;;;;;;6716332;88;20198;-79
2022/06/15 11:52:56;;;;;;;3.72;1.73;;;34.50;63.30;;;;;;6720735;88;20173;-78
2022/06/15 12:03:28;;;;;;;3.50;1.80;;;34.70;61.40;;;;;;6723431;88;20236;-78
2022/06/15 12:13:51;;;;;;;5.00;1.83;;;35.30;60.70;;;;;;6715625;88;20211;-78
2022/06/15 12:24:33;;;;;;;3.30;1.77;;;35.00;58.00;;;;;;6717816;88;20173;-78
2022/06/15 12:34:43;;;;;;;6.20;2.05;;;34.50;59.90;;;;;;6723822;88;20222;-78
2022/06/15 12:44:53;;;;;;;3.58;1.90;;;35.60;58.70;;;;;;6712097;88;20218;-78
2022/06/15 12:55:11;;;;;;;4.40;2.00;;;35.90;59.10;;;;;;6717661;88;20205;-78
2022/06/15 13:05:32;;;;;;;4.50;1.83;;;36.10;58.10;;;;;;6715916;88;20792;-77
2022/06/15 13:15:59;;;;;;;5.28;2.00;;;36.60;59.20;;;;;;6711332;88;20305;-78
2022/06/15 13:26:11;;;;;;;4.07;1.80;;;36.80;56.30;;;;;;6715562;88;20257;-78
2022/06/15 13:36:12;;;;;;;3.42;1.80;;;36.80;54.40;;;;;;6713365;88;20638;-78
2022/06/15 13:46:27;;;;;;;4.87;2.05;;;35.30;56.00;;;;;;6716409;88;20201;-78
2022/06/15 13:56:32;;;;;;;4.15;1.70;;;35.80;54.30;;;;;;6715294;88;20189;-78
2022/06/15 14:07:10;;;;;;;4.10;1.58;;;36.50;53.90;;;;;;6714365;88;20190;-78
2022/06/15 14:17:49;;;;;;;3.03;1.90;;;35.40;52.40;;;;;;6719858;88;20212;-78
2022/06/15 14:27:56;;;;;;;5.00;1.70;;;35.10;52.40;;;;;;6713753;88;20359;-78
2022/06/15 14:38:00;;;;;;;5.28;1.83;;;35.40;53.40;;;;;;6720385;88;20200;-80
2022/06/15 14:48:06;;;;;;;3.87;1.60;;;35.30;52.50;;;;;;6730509;88;20198;-80
2022/06/15 14:58:16;;;;;;;4.72;1.70;;;35.40;53.10;;;;;;6735642;88;20182;-79
2022/06/15 15:08:20;;;;;;;3.40;1.80;;;35.30;51.60;;;;;;6723567;88;20189;-79
2022/06/15 15:18:39;;;;;;;3.92;1.62;;;34.60;52.50;;;;;;6733128;88;20198;-78
2022/06/15 15:39:13;;;;;;;2.97;1.80;;;34.90;51.80;;;;;;6724416;88;20198;-78
2022/06/15 15:49:14;;;;;;;7.85;2.47;;;34.60;52.20;;;;;;6721546;88;20185;-77
2022/06/15 15:59:15;;;;;;;4.57;1.77;;;34.00;53.50;;;;;;6722295;88;20219;-78
2022/06/15 16:09:16;;;;;;;;;;;34.60;52.40;;;;;;6714645;88;20199;-78
2022/06/15 16:19:17;;;;;;;4.62;2.00;;;34.50;53.00;;;;;;6720829;88;20191;-78
2022/06/15 16:29:17;;;;;;;4.57;2.05;;;33.60;54.40;;;;;;6721375;88;20629;-78
2022/06/15 16:39:18;;;;;;;7.12;1.75;;;32.90;55.20;;;;;;6720931;88;20193;-78
2022/06/15 16:49:19;;;;;;;4.60;2.33;;;32.70;55.10;;;;;;6719082;88;20199;-78
2022/06/15 16:59:25;;;;;;;2.87;1.90;;;32.40;55.70;;;;;;6719818;88;21032;-78
2022/06/15 17:09:28;;;;;;;3.87;2.08;;;32.20;56.20;;;;;;6720482;88;20666;-79
2022/06/15 17:19:29;;;;;;;4.75;2.00;;;31.40;56.50;;;;;;6721458;88;20622;-78
2022/06/15 17:29:30;;;;;;;4.20;1.90;;;31.40;57.10;;;;;;6722052;88;20194;-80
2022/06/15 17:39:32;;;;;;;3.93;1.93;;;31.80;57.30;;;;;;6734394;76;20214;-79
2022/06/15 17:49:32;;;;;;;6.77;2.00;;;31.50;57.00;;;;;;6722667;88;20590;-78
2022/06/15 17:59:33;;;;;;;3.62;2.00;;;32.10;57.10;;;;;;6726090;88;20193;-80
2022/06/15 18:09:34;;;;;;;7.67;2.40;;;31.80;57.90;;;;;;6719249;88;20174;-80
2022/06/15 18:19:39;;;;;;;7.43;2.30;;;31.10;58.70;;;;;;6726134;88;21051;-78
2022/06/15 18:29:40;;;;;;;7.95;2.33;;;31.50;58.40;;;;;;6718954;88;20189;-78
2022/06/15 18:39:41;;;;;;;3.50;2.28;;;29.70;61.10;;;;;;6726105;88;20243;-78
2022/06/15 18:49:42;;;;;;;6.62;2.55;;;29.20;61.20;;;;;;6724583;88;20356;-79
2022/06/15 18:59:44;;;;;;;5.70;2.42;;;28.70;62.00;;;;;;6716925;88;21094;-78
2022/06/15 19:09:45;;;;;;;4.63;2.40;;;28.10;63.20;;;;;;6712753;88;20263;-79
2022/06/15 19:19:45;;;;;;;5.60;2.33;;;27.70;64.30;;;;;;6711545;88;20266;-78
2022/06/15 19:29:51;;;;;;;11.27;2.60;;;27.50;65.80;;;;;;6713136;88;21065;-78
2022/06/15 19:39:51;;;;;;;7.90;2.72;;;27.00;67.00;;;;;;6717870;88;20236;-77
2022/06/15 19:49:55;;;;;;;7.87;2.85;;;26.40;68.60;;;;;;6716052;88;20976;-78
2022/06/15 19:59:56;;;;;;;8.90;3.17;;;25.60;72.20;;;;;;6717819;88;20186;-77
2022/06/15 20:09:56;;;;;;;6.82;3.08;;;25.00;74.50;;;;;;6722287;88;20647;-78
2022/06/15 20:20:02;;;;;;;7.60;3.10;;;24.50;76.70;;;;;;6720857;88;20205;-78
2022/06/15 20:30:05;;;;;;;5.15;2.80;;;24.20;78.10;;;;;;6726872;88;20181;-78
2022/06/15 20:40:07;;;;;;;9.67;2.97;;;23.80;79.40;;;;;;6719917;88;20886;-78
2022/06/15 20:50:10;;;;;;;6.65;3.00;;;23.50;81.10;;;;;;6723688;88;20225;-78
2022/06/15 21:00:11;;;;;;;8.13;3.00;;;23.30;81.90;;;;;;6716667;88;20768;-78
2022/06/15 21:20:32;;;;;;;7.37;3.10;;;22.80;86.30;;;;;;6724135;88;20625;-77
2022/06/15 21:30:38;;;;;;;10.90;3.25;;;22.50;88.40;;;;;;6726176;88;20230;-78
2022/06/15 21:40:39;;;;;;;6.87;3.10;;;22.20;90.20;;;;;;6725124;88;20742;-79
2022/06/15 21:50:49;;;;;;;5.95;2.83;;;22.00;91.40;;;;;;6726801;88;20215;-77
2022/06/15 22:00:50;;;;;;;7.32;3.03;;;21.70;92.20;;;;;;6719899;88;20202;-77
2022/06/15 22:10:51;;;;;;;7.68;3.12;;;21.50;93.20;;;;;;6721220;88;20182;-78
2022/06/15 22:20:51;;;;;;;5.18;2.90;;;21.40;93.90;;;;;;6736399;88;20205;-78
2022/06/15 22:30:52;;;;;;;7.62;3.25;;;21.30;94.70;;;;;;6721218;88;20189;-77
2022/06/15 22:40:53;;;;;;;9.30;3.05;;;21.10;95.40;;;;;;6718295;88;20211;-78
2022/06/15 22:50:54;;;;;;;5.82;2.95;;;21.10;95.90;;;;;;6722467;88;20181;-77
2022/06/15 23:00:54;;;;;;;9.85;3.20;;;21.00;96.40;;;;;;6725030;88;20231;-78
2022/06/15 23:10:55;;;;;;;11.65;3.35;;;20.80;97.00;;;;;;6718230;88;20196;-78
2022/06/15 23:20:56;;;;;;;8.05;3.08;;;20.70;97.70;;;;;;6727725;88;20205;-79
2022/06/15 23:30:56;;;;;;;6.18;2.75;;;21.00;97.90;;;;;;6727365;77;20203;31
2022/06/15 23:40:57;;;;;;;6.10;3.17;;;20.80;98.40;;;;;;6711989;88;20787;-77
2022/06/15 23:50:57;;;;;;;6.78;3.60;;;20.50;99.80;;;;;;6713404;88;20319;-75
